Time;durP1;ratioP1;P1;durP2;ratioP2;P2;SDS_P1;SDS_P2;PMS_P1;PMS_P2;Temp;Humidity;BMP_temperature;BMP_pressure;BME280_temperature;BME280_humidity;BME280_pressure;Samples;Min_cycle;Max_cycle;Signal;HPM_P1;HPM_P2
2021/09/23 00:00:28;;;;;;;;;16.50;14.25;;;;;17.27;58.91;102129.75;4915317;28;45388;-70
2021/09/23 00:05:20;;;;;;;;;20.75;17.25;;;;;17.24;59.40;102114.00;4915279;28;45383;-69
2021/09/23 00:07:47;;;;;;;;;16.50;14.50;;;;;17.17;59.29;102126.00;4915108;28;45595;-70
2021/09/23 00:10:21;;;;;;;;;17.50;12.00;;;;;17.10;59.15;102126.50;4917085;28;46386;-71
2021/09/23 00:12:48;;;;;;;;;13.50;13.00;;;;;17.05;59.19;102132.09;4914119;28;45241;-75
2021/09/23 00:15:15;;;;;;;;;17.00;14.75;;;;;17.01;59.32;102127.94;4917558;28;45321;-72
2021/09/23 00:17:49;;;;;;;;;17.25;16.00;;;;;17.01;59.48;102123.47;4914200;28;45415;-77
2021/09/23 00:20:24;;;;;;;;;15.50;15.50;;;;;16.97;59.67;102134.41;4915001;28;46308;-69
2021/09/23 00:22:50;;;;;;;;;15.50;15.00;;;;;16.94;60.51;102131.94;4914795;28;45241;-69
2021/09/23 00:25:15;;;;;;;;;14.75;14.00;;;;;16.93;60.81;102120.44;4914345;28;45321;-70
2021/09/23 00:27:41;;;;;;;;;15.75;15.75;;;;;16.95;61.12;102115.03;4914639;28;45392;-73
2021/09/23 00:30:09;;;;;;;;;17.00;16.00;;;;;16.95;61.17;102117.69;4915797;28;45470;-67
2021/09/23 00:32:34;;;;;;;;;18.75;18.75;;;;;16.92;61.23;102116.06;4921486;28;45458;-72
2021/09/23 00:35:00;;;;;;;;;19.00;15.25;;;;;16.94;61.10;102124.81;4906106;28;45467;-72
2021/09/23 00:37:25;;;;;;;;;19.50;17.00;;;;;16.94;61.42;102116.81;4915106;28;45510;-71
2021/09/23 00:39:51;;;;;;;;;22.25;17.00;;;;;16.96;61.63;102117.56;4921636;28;45347;-72
2021/09/23 00:42:17;;;;;;;;;19.75;17.50;;;;;16.93;61.61;102119.59;4921722;28;45696;-72
2021/09/23 00:44:56;;;;;;;;;23.00;19.00;;;;;16.87;61.71;102119.97;4921542;28;45304;-71
2021/09/23 00:47:22;;;;;;;;;15.75;15.00;;;;;16.84;61.84;102115.72;4922079;28;45451;-71
2021/09/23 00:49:48;;;;;;;;;17.25;14.50;;;;;16.82;61.71;102114.09;4923047;28;45837;-71
2021/09/23 00:52:13;;;;;;;;;19.75;17.50;;;;;16.84;62.06;102107.72;4918752;28;45305;-71
2021/09/23 00:54:39;;;;;;;;;18.25;15.00;;;;;16.86;62.00;102100.50;4923252;28;45383;-72
2021/09/23 00:57:04;;;;;;;;;18.00;17.25;;;;;16.86;61.83;102103.16;4922801;28;45256;-71
2021/09/23 00:59:30;;;;;;;;;13.00;9.50;;;;;16.87;61.82;102096.03;4922726;28;46188;-71
2021/09/23 01:01:55;;;;;;;;;18.50;14.50;;;;;16.82;61.78;102088.31;4922709;28;45507;-71
2021/09/23 01:04:21;;;;;;;;;16.25;14.75;;;;;16.84;61.93;102080.25;4923168;28;45389;-71
2021/09/23 01:06:50;;;;;;;;;20.00;16.50;;;;;16.84;61.84;102074.94;4923096;28;45297;-71
2021/09/23 01:09:17;;;;;;;;;18.25;16.50;;;;;16.82;61.88;102068.84;4922668;28;46271;-71
2021/09/23 01:11:42;;;;;;;;;20.00;16.50;;;;;16.79;62.17;102059.25;4922606;28;45417;-72
2021/09/23 01:14:10;;;;;;;;;18.50;14.25;;;;;16.72;62.05;102047.28;4922871;28;45315;-70
2021/09/23 01:16:37;;;;;;;;;15.25;14.75;;;;;16.67;62.09;102049.38;4922571;28;45245;-71
2021/09/23 01:19:03;;;;;;;;;18.00;15.75;;;;;16.63;62.19;102042.53;4922685;28;46249;-70
2021/09/23 01:21:28;;;;;;;;;20.00;17.00;;;;;16.58;62.21;102048.13;4922593;28;45318;-71
2021/09/23 01:23:54;;;;;;;;;19.75;18.00;;;;;16.56;62.38;102043.88;4922747;28;45173;-70
2021/09/23 01:26:26;;;;;;;;;16.75;16.75;;;;;16.53;62.46;102042.28;4923509;28;45241;-71
2021/09/23 01:28:53;;;;;;;;;18.75;16.75;;;;;16.54;62.44;102032.50;4908701;28;46441;-70
2021/09/23 01:31:19;;;;;;;;;20.00;17.25;;;;;16.56;62.46;102035.91;4925528;28;45320;-71
2021/09/23 01:33:44;;;;;;;;;19.75;16.50;;;;;16.57;62.27;102026.97;4925941;28;45165;-71
2021/09/23 01:36:10;;;;;;;;;21.00;18.25;;;;;16.57;62.24;102029.63;4924453;28;45495;-71
2021/09/23 01:38:35;;;;;;;;;17.25;15.25;;;;;16.52;62.22;102035.25;4923439;28;45236;-71
2021/09/23 01:41:01;;;;;;;;;17.50;14.50;;;;;16.43;62.32;102039.34;4925380;28;45340;-71
2021/09/23 01:43:27;;;;;;;;;17.50;14.75;;;;;16.36;62.36;102030.03;4924745;28;45445;-71
2021/09/23 01:45:52;;;;;;;;;17.50;13.75;;;;;16.34;62.49;102023.09;4925724;28;45289;-64
2021/09/23 01:48:18;;;;;;;;;16.50;16.00;;;;;16.33;62.98;102021.38;4925592;28;45646;-70
2021/09/23 01:50:43;;;;;;;;;21.00;16.25;;;;;16.35;63.04;102007.06;4925711;28;45443;-70
2021/09/23 01:53:09;;;;;;;;;15.25;12.75;;;;;16.35;62.92;102011.50;4925667;28;45368;-70
2021/09/23 01:55:34;;;;;;;;;19.50;18.00;;;;;16.31;63.20;102013.50;4925718;28;45329;-70
2021/09/23 01:58:00;;;;;;;;;17.75;17.25;;;;;16.27;63.11;102012.00;4925091;28;46212;-70
2021/09/23 02:00:26;;;;;;;;;21.50;18.00;;;;;16.24;63.35;102009.53;4925434;28;45373;-70
2021/09/23 02:02:53;;;;;;;;;20.00;17.00;;;;;16.21;63.42;102011.53;4925211;28;45237;-70
2021/09/23 02:05:19;;;;;;;;;17.75;15.75;;;;;16.18;63.39;102009.91;4925446;28;45431;-70
2021/09/23 02:07:45;;;;;;;;;20.25;18.00;;;;;16.15;63.64;102016.28;4908163;28;45639;-70
2021/09/23 02:10:11;;;;;;;;;18.00;14.75;;;;;16.12;63.83;102005.84;4925371;28;45251;-70
2021/09/23 02:12:36;;;;;;;;;17.75;15.25;;;;;16.10;64.07;102004.22;4925256;28;45264;-70
2021/09/23 02:15:02;;;;;;;;;20.25;15.75;;;;;16.09;64.24;101994.53;4925401;28;45330;-70
2021/09/23 02:17:29;;;;;;;;;19.50;17.75;;;;;16.13;64.37;101996.06;4925025;28;45329;-70
2021/09/23 02:19:56;;;;;;;;;19.00;17.50;;;;;16.17;64.44;101992.25;4925157;28;45352;-70
2021/09/23 02:22:21;;;;;;;;;19.75;18.25;;;;;16.17;64.40;102001.09;4925156;28;45248;-70
2021/09/23 02:24:47;;;;;;;;;18.50;18.50;;;;;16.16;64.36;101988.75;4925313;28;45173;-70
2021/09/23 02:27:12;;;;;;;;;23.75;19.75;;;;;16.18;64.50;101986.84;4924735;28;46215;-70
2021/09/23 02:29:38;;;;;;;;;18.25;17.00;;;;;16.18;64.50;101989.50;4924857;28;45271;-70
2021/09/23 02:32:05;;;;;;;;;21.00;18.75;;;;;16.11;64.37;101980.19;4925254;28;45181;-70
2021/09/23 02:34:30;;;;;;;;;19.25;19.00;;;;;16.04;64.51;101983.34;4925136;28;45258;-70
2021/09/23 02:36:56;;;;;;;;;21.00;20.25;;;;;15.99;64.39;101986.28;4924406;28;45375;-69
2021/09/23 02:39:22;;;;;;;;;21.00;17.75;;;;;15.97;64.37;101988.19;4924793;28;45284;-69
2021/09/23 02:41:47;;;;;;;;;23.75;19.25;;;;;15.96;64.76;101985.59;4924952;28;45455;-69
2021/09/23 02:44:13;;;;;;;;;24.75;19.00;;;;;15.90;64.83;101984.22;4924954;28;45405;-70
2021/09/23 02:46:38;;;;;;;;;24.50;19.75;;;;;15.89;65.07;101982.50;4907706;28;46144;-69
2021/09/23 02:49:04;;;;;;;;;24.25;17.75;;;;;15.89;64.90;101978.03;4924751;28;45401;-69
2021/09/23 02:51:29;;;;;;;;;26.00;21.50;;;;;15.89;64.95;101978.03;4924967;28;45320;-69
2021/09/23 02:53:55;;;;;;;;;21.00;18.00;;;;;15.87;64.99;101982.56;4924737;28;45240;-69
2021/09/23 02:56:21;;;;;;;;;24.75;22.00;;;;;15.84;65.16;101984.56;4924601;28;45240;-69
2021/09/23 02:58:47;;;;;;;;;25.75;20.75;;;;;15.84;65.27;101989.88;4924178;28;45202;-69
2021/09/23 03:01:17;;;;;;;;;22.00;17.50;;;;;15.83;65.48;101985.53;4924291;28;45212;-70
2021/09/23 03:03:43;;;;;;;;;24.50;20.75;;;;;15.81;65.56;101980.31;4924622;28;45326;-69
2021/09/23 03:06:09;;;;;;;;;20.25;18.00;;;;;15.80;65.22;101975.97;4924551;28;45468;-69
2021/09/23 03:08:35;;;;;;;;;18.00;17.75;;;;;15.81;65.42;101974.16;4924350;28;45334;-70
2021/09/23 03:11:00;;;;;;;;;16.25;15.00;;;;;15.79;65.54;101966.25;4924751;28;45498;-69
2021/09/23 03:13:26;;;;;;;;;24.50;22.25;;;;;15.80;65.36;101972.41;4924366;28;45299;-70
2021/09/23 03:15:51;;;;;;;;;21.25;19.50;;;;;15.79;65.46;101966.25;4924203;28;45901;-69
2021/09/23 03:18:17;;;;;;;;;23.00;19.75;;;;;15.79;65.62;101966.25;4924100;28;45316;-69
2021/09/23 03:20:45;;;;;;;;;16.00;15.00;;;;;15.80;65.37;101957.34;4924536;28;45221;-69
2021/09/23 03:23:11;;;;;;;;;19.00;17.00;;;;;15.83;65.66;101953.66;4924268;28;45269;-69
2021/09/23 03:25:37;;;;;;;;;20.00;18.25;;;;;15.79;65.51;101958.28;4924114;28;45395;-72
2021/09/23 03:28:03;;;;;;;;;26.00;21.00;;;;;15.75;65.56;101954.13;4923934;28;45231;-71
2021/09/23 03:30:28;;;;;;;;;20.50;15.00;;;;;15.71;65.60;101943.75;4924188;28;45499;-69
2021/09/23 03:32:54;;;;;;;;;20.50;17.75;;;;;15.70;65.59;101945.56;4924036;28;45391;-69
2021/09/23 03:35:21;;;;;;;;;22.50;19.25;;;;;15.72;65.58;101948.13;4923957;28;45867;-69
2021/09/23 03:37:47;;;;;;;;;21.75;20.00;;;;;15.72;65.60;101946.34;4923867;28;45407;-69
2021/09/23 03:40:12;;;;;;;;;28.25;26.00;;;;;15.72;65.41;101942.81;4924205;28;45396;-69
2021/09/23 03:42:38;;;;;;;;;19.50;18.50;;;;;15.72;65.69;101942.81;4923841;28;45297;-69
2021/09/23 03:45:05;;;;;;;;;24.25;18.00;;;;;15.69;65.41;101949.19;4923825;28;45288;-69
2021/09/23 03:47:31;;;;;;;;;22.50;21.50;;;;;15.62;65.77;101950.50;4924040;28;45145;-69
2021/09/23 03:49:57;;;;;;;;;25.75;18.00;;;;;15.57;65.80;101950.75;4922950;28;45399;-69
2021/09/23 03:52:22;;;;;;;;;19.00;17.50;;;;;15.53;65.99;101938.59;4923741;28;45304;-69
2021/09/23 03:54:48;;;;;;;;;18.75;18.75;;;;;15.55;65.84;101941.16;4923865;28;45312;-69
2021/09/23 03:57:13;;;;;;;;;22.00;21.00;;;;;15.55;65.78;101942.00;4923389;28;45236;-72
2021/09/23 03:59:39;;;;;;;;;19.75;18.00;;;;;15.56;65.78;101943.75;4923578;28;45436;-68
2021/09/23 04:02:06;;;;;;;;;22.75;19.75;;;;;15.55;65.79;101949.13;4923646;28;45526;-68
2021/09/23 04:04:32;;;;;;;;;18.25;17.00;;;;;15.54;65.68;101952.72;4923890;28;46356;-68
2021/09/23 04:06:57;;;;;;;;;19.00;18.50;;;;;15.50;65.63;101954.72;4923483;28;45185;-69
2021/09/23 04:09:22;;;;;;;;;23.25;18.75;;;;;15.49;66.00;101947.72;4923638;28;45485;-68
2021/09/23 04:11:48;;;;;;;;;20.50;19.50;;;;;15.50;65.88;101949.41;4923460;28;45608;-68
2021/09/23 04:14:13;;;;;;;;;22.25;16.75;;;;;15.49;65.89;101953.03;4923688;28;45324;-69
2021/09/23 04:16:39;;;;;;;;;18.75;17.00;;;;;15.47;65.91;101943.44;4923024;28;45332;-68
2021/09/23 04:19:05;;;;;;;;;21.50;17.75;;;;;15.46;65.85;101947.88;4923874;28;45193;-68
2021/09/23 04:21:30;;;;;;;;;19.50;17.25;;;;;15.44;65.72;101947.13;4923450;28;45363;-68
2021/09/23 04:23:56;;;;;;;;;26.00;18.75;;;;;15.42;65.98;101958.81;4923330;28;45811;-69
2021/09/23 04:26:22;;;;;;;;;18.75;17.75;;;;;15.40;65.98;101958.88;4923171;28;45486;-68
2021/09/23 04:28:47;;;;;;;;;18.75;17.50;;;;;15.38;65.80;101960.75;4923541;28;45340;-68
2021/09/23 04:31:13;;;;;;;;;21.75;21.50;;;;;15.36;65.80;101952.91;4923160;28;45481;-68
2021/09/23 04:33:38;;;;;;;;;28.75;21.00;;;;;15.36;66.14;101952.06;4922789;28;46013;-68
2021/09/23 04:36:04;;;;;;;;;25.50;20.00;;;;;15.37;66.04;101951.09;4922929;28;45462;-68
2021/09/23 04:38:30;;;;;;;;;25.75;22.25;;;;;15.36;66.00;101952.91;4923491;28;45272;-68
2021/09/23 04:40:55;;;;;;;;;20.00;19.25;;;;;15.35;66.20;101948.53;4923252;28;45411;-68
2021/09/23 04:43:21;;;;;;;;;23.50;20.25;;;;;15.35;66.09;101948.53;4922936;28;45335;-68
2021/09/23 04:45:47;;;;;;;;;25.50;21.75;;;;;15.35;65.88;101953.84;4922853;28;45372;-68
2021/09/23 04:48:13;;;;;;;;;25.25;22.25;;;;;15.30;66.34;101945.28;4923209;28;45226;-69
2021/09/23 04:50:39;;;;;;;;;24.00;20.00;;;;;15.30;66.06;101947.94;4923102;28;45250;-69
2021/09/23 04:53:04;;;;;;;;;24.00;19.25;;;;;15.29;65.92;101951.56;4923010;28;46056;-68
2021/09/23 04:55:30;;;;;;;;;26.00;17.75;;;;;15.29;66.13;101945.41;4923041;28;45242;-68
2021/09/23 04:57:55;;;;;;;;;23.75;22.00;;;;;15.27;66.31;101950.81;4922917;28;45574;-68
2021/09/23 05:00:21;;;;;;;;;27.50;23.50;;;;;15.27;66.23;101953.47;4923927;28;45350;-68
2021/09/23 05:02:47;;;;;;;;;24.75;19.25;;;;;15.25;66.23;101962.47;4913069;28;46213;-68
2021/09/23 05:05:13;;;;;;;;;19.75;18.00;;;;;15.23;66.25;101962.53;4926338;28;45435;-68
2021/09/23 05:07:38;;;;;;;;;31.75;21.00;;;;;15.23;66.30;101962.53;4926179;28;45340;-69
2021/09/23 05:10:05;;;;;;;;;22.25;21.25;;;;;15.24;66.39;101968.69;4926291;28;45324;-68
2021/09/23 05:12:30;;;;;;;;;24.25;20.00;;;;;15.22;66.13;101970.59;4925851;28;46093;-68
2021/09/23 05:14:56;;;;;;;;;25.25;23.50;;;;;15.16;66.32;101971.81;4926071;28;45356;-68
2021/09/23 05:17:21;;;;;;;;;30.75;23.50;;;;;15.14;66.40;101981.66;4925979;28;45290;-68
2021/09/23 05:19:47;;;;;;;;;19.50;19.50;;;;;15.10;66.29;101973.97;4926295;28;45406;-69
2021/09/23 05:22:13;;;;;;;;;19.25;17.75;;;;;15.07;66.40;101975.84;4925138;28;46110;-68
2021/09/23 05:24:38;;;;;;;;;23.50;21.75;;;;;15.08;66.35;101979.34;4925825;28;45244;-68
2021/09/23 05:27:04;;;;;;;;;24.00;19.00;;;;;15.10;66.61;101977.50;4922466;28;45588;-68
2021/09/23 05:29:30;;;;;;;;;23.75;21.00;;;;;15.11;66.56;101981.00;4924686;28;45470;-68
2021/09/23 05:31:55;;;;;;;;;23.00;17.50;;;;;15.10;66.40;101984.59;4925238;28;45593;-68
2021/09/23 05:34:21;;;;;;;;;22.25;18.00;;;;;15.11;66.60;101989.81;4925123;28;45395;-69
2021/09/23 05:36:47;;;;;;;;;23.50;19.25;;;;;15.13;66.57;101984.41;4925564;28;45296;-68
2021/09/23 05:39:13;;;;;;;;;25.00;20.50;;;;;15.12;66.73;101991.53;4925439;28;45561;-68
2021/09/23 05:41:41;;;;;;;;;25.25;20.50;;;;;15.14;66.48;101996.72;4925177;28;45881;-69
2021/09/23 05:44:07;;;;;;;;;23.50;18.75;;;;;15.11;66.55;101992.47;4919981;28;45557;-67
2021/09/23 05:46:33;;;;;;;;;29.50;25.00;;;;;15.07;66.43;101989.13;4924987;28;45346;-70
2021/09/23 05:48:58;;;;;;;;;24.00;21.00;;;;;15.04;66.60;101994.63;4919855;28;45511;-67
2021/09/23 05:51:24;;;;;;;;;28.75;25.25;;;;;15.02;66.83;101996.50;4925246;28;46202;-69
2021/09/23 05:53:49;;;;;;;;;19.50;17.50;;;;;15.03;66.38;102002.66;4920876;28;45200;-69
2021/09/23 05:56:15;;;;;;;;;26.75;23.50;;;;;15.02;66.56;101995.66;4917710;28;45411;-68
2021/09/23 05:58:40;;;;;;;;;26.75;23.50;;;;;15.04;66.85;101993.75;4920343;28;45452;-74
2021/09/23 06:01:06;;;;;;;;;24.00;22.00;;;;;15.04;66.62;101999.94;4917834;28;45495;-72
2021/09/23 06:03:31;;;;;;;;;24.75;20.50;;;;;15.05;66.47;102006.94;4917684;28;45402;-72
2021/09/23 06:05:57;;;;;;;;;18.50;15.75;;;;;15.06;66.40;102013.94;4924136;28;45341;-72
2021/09/23 06:08:22;;;;;;;;;20.75;20.25;;;;;15.05;66.17;102012.25;4925019;28;45364;-72
2021/09/23 06:10:48;;;;;;;;;22.50;17.25;;;;;15.05;66.44;102011.41;4925030;28;45428;-74
2021/09/23 06:13:13;;;;;;;;;25.75;21.00;;;;;15.07;66.36;102017.47;4906750;28;45368;-73
2021/09/23 06:15:39;;;;;;;;;24.00;21.25;;;;;15.13;66.50;102008.28;4924529;28;45371;-75
2021/09/23 06:18:04;;;;;;;;;18.00;16.00;;;;;15.16;66.09;102000.13;4924284;28;45439;-75
2021/09/23 06:20:30;;;;;;;;;22.75;19.25;;;;;15.19;66.05;102007.94;4924221;28;45549;-74
2021/09/23 06:22:55;;;;;;;;;25.50;18.75;;;;;15.19;65.90;102011.44;4924820;28;45380;-73
2021/09/23 06:25:22;;;;;;;;;23.00;20.75;;;;;15.23;66.03;102009.47;4913900;28;45735;-74
2021/09/23 06:27:48;;;;;;;;;23.25;19.75;;;;;15.27;65.98;102009.19;4918314;28;45368;-75
2021/09/23 06:30:14;;;;;;;;;29.00;19.50;;;;;15.33;65.76;102015.97;4916607;28;46121;-71
2021/09/23 06:32:40;;;;;;;;;24.00;20.25;;;;;15.40;65.38;102024.41;4916946;28;45212;-70
2021/09/23 06:35:06;;;;;;;;;22.00;20.75;;;;;15.42;65.18;102028.69;4917994;28;45513;-71
2021/09/23 06:37:32;;;;;;;;;21.25;19.00;;;;;15.45;65.33;102031.16;4915998;28;45549;-68
2021/09/23 06:39:58;;;;;;;;;28.75;23.50;;;;;15.49;64.99;102026.53;4919521;28;46001;-71
2021/09/23 06:42:23;;;;;;;;;21.25;20.50;;;;;15.49;64.98;102023.88;4917948;28;45629;-72
2021/09/23 06:44:49;;;;;;;;;20.75;18.50;;;;;15.49;64.82;102027.38;4918291;28;45465;-67
2021/09/23 06:47:14;;;;;;;;;25.00;15.75;;;;;15.53;64.61;102036.00;4917509;28;45568;-72
2021/09/23 06:49:40;;;;;;;;;19.50;18.25;;;;;15.53;64.55;102034.22;4919778;28;46757;-73
2021/09/23 06:52:06;;;;;;;;;23.50;20.25;;;;;15.55;64.44;102028.81;4917126;28;45473;-70
2021/09/23 06:54:31;;;;;;;;;24.75;20.25;;;;;15.54;64.55;102021.78;4915800;28;45515;-72
2021/09/23 06:56:57;;;;;;;;;20.25;16.50;;;;;15.56;64.69;102019.88;4919679;28;45438;-71
2021/09/23 06:59:23;;;;;;;;;18.50;16.25;;;;;15.58;64.63;102026.84;4914322;28;45451;-75
2021/09/23 07:01:48;;;;;;;;;24.00;20.00;;;;;15.57;64.74;102033.09;4917139;28;45364;-74
2021/09/23 07:04:14;;;;;;;;;22.25;21.25;;;;;15.57;64.52;102030.44;4918167;28;45516;-74
2021/09/23 07:06:40;;;;;;;;;26.50;19.00;;;;;15.60;64.75;102038.22;4917816;28;45352;-72
2021/09/23 07:09:07;;;;;;;;;28.50;21.75;;;;;15.64;64.41;102030.97;4918114;28;45372;-71
2021/09/23 07:11:34;;;;;;;;;22.25;21.00;;;;;15.65;64.35;102030.00;4917953;28;45331;-71
2021/09/23 07:13:59;;;;;;;;;23.75;21.75;;;;;15.69;64.55;102022.69;4917520;28;45395;-70
2021/09/23 07:16:25;;;;;;;;;24.75;20.75;;;;;15.75;64.56;102023.19;4917962;28;45550;-73
2021/09/23 07:18:50;;;;;;;;;21.00;20.00;;;;;15.83;64.46;102028.03;4920225;28;46220;-70
2021/09/23 07:21:16;;;;;;;;;25.25;18.25;;;;;15.87;64.50;102029.53;4917905;28;45384;-67
2021/09/23 07:23:41;;;;;;;;;26.25;22.50;;;;;15.90;64.20;102026.72;4917421;28;45388;-73
2021/09/23 07:26:07;;;;;;;;;25.50;20.75;;;;;15.95;64.29;102029.09;4917931;28;45414;-73
2021/09/23 07:28:32;;;;;;;;;30.75;25.50;;;;;15.95;63.81;102027.28;4918400;28;46619;-73
2021/09/23 07:30:58;;;;;;;;;30.25;22.50;;;;;15.98;64.05;102026.25;4918987;28;45186;-69
2021/09/23 07:33:23;;;;;;;;;26.25;24.00;;;;;15.97;63.82;102017.44;4917411;28;45277;-72
2021/09/23 07:35:54;;;;;;;;;23.50;20.50;;;;;15.98;63.50;102012.97;4916503;28;45495;-73
2021/09/23 07:38:20;;;;;;;;;23.50;20.50;;;;;16.00;63.48;102005.75;4918555;28;45483;-75
2021/09/23 07:40:46;;;;;;;;;28.00;25.00;;;;;16.04;63.59;102004.63;4917068;28;45611;-74
2021/09/23 07:43:12;;;;;;;;;31.50;25.25;;;;;16.05;63.57;102001.88;4915997;28;45477;-75
2021/09/23 07:45:38;;;;;;;;;30.00;26.50;;;;;16.08;63.39;101996.34;4915960;28;45347;-71
2021/09/23 07:48:04;;;;;;;;;27.00;25.75;;;;;16.11;63.30;102006.78;4918548;28;45342;-72
2021/09/23 07:50:29;;;;;;;;;29.75;27.00;;;;;16.14;63.17;102003.94;4916392;28;45490;-73
2021/09/23 07:52:55;;;;;;;;;26.25;23.25;;;;;16.23;63.54;101994.53;4916565;28;45553;-73
2021/09/23 07:55:20;;;;;;;;;23.75;20.50;;;;;16.31;63.27;101997.56;4917287;28;45420;-72
2021/09/23 07:57:46;;;;;;;;;26.50;23.25;;;;;16.39;63.12;102003.25;4918970;28;45831;-74
2021/09/23 08:00:16;;;;;;;;;21.00;19.00;;;;;16.48;62.85;101991.16;4915450;28;45402;-70
2021/09/23 08:02:42;;;;;;;;;22.50;21.00;;;;;16.52;62.76;101998.00;4915791;28;45325;-71
2021/09/23 08:05:08;;;;;;;;;19.50;18.50;;;;;16.57;62.56;102003.88;4915077;28;45424;-71
2021/09/23 08:07:33;;;;;;;;;21.75;19.25;;;;;16.59;62.53;102004.66;4912738;28;45363;-71
2021/09/23 08:09:59;;;;;;;;;26.50;21.75;;;;;16.65;62.37;102006.88;4914946;28;45325;-70
2021/09/23 08:12:27;;;;;;;;;26.00;21.75;;;;;16.71;62.37;102011.84;4915807;28;45380;-71
2021/09/23 08:14:53;;;;;;;;;25.50;22.50;;;;;16.78;62.24;102008.81;4914066;28;45417;-71
2021/09/23 08:17:18;;;;;;;;;30.25;19.75;;;;;16.81;62.05;102009.44;4913321;28;45332;-68
2021/09/23 08:19:44;;;;;;;;;29.00;26.00;;;;;16.85;62.01;102008.31;4914781;28;45335;-72
2021/09/23 08:22:10;;;;;;;;;24.50;22.75;;;;;16.91;61.95;102007.91;4917674;28;45508;-71
2021/09/23 08:24:36;;;;;;;;;30.50;23.50;;;;;16.97;61.83;102002.16;4915156;28;45424;-69
2021/09/23 08:27:02;;;;;;;;;25.50;22.00;;;;;17.05;61.54;102009.63;4917073;28;46501;-74
2021/09/23 08:29:28;;;;;;;;;25.25;23.75;;;;;17.11;61.30;102000.41;4914649;28;45473;-71
2021/09/23 08:31:53;;;;;;;;;28.75;24.00;;;;;17.18;61.22;102004.34;4913959;28;45518;-70
2021/09/23 08:34:19;;;;;;;;;30.00;24.00;;;;;17.25;60.89;102011.00;4915546;28;45447;-74
2021/09/23 08:36:45;;;;;;;;;30.00;26.00;;;;;17.34;60.89;102012.19;4923269;28;46115;-75
2021/09/23 08:39:12;;;;;;;;;30.00;27.25;;;;;17.40;60.95;102006.44;4921242;28;45429;-70
2021/09/23 08:41:38;;;;;;;;;30.25;24.25;;;;;17.47;60.90;102005.91;4922691;28;45265;-69
2021/09/23 08:44:04;;;;;;;;;35.75;27.00;;;;;17.54;60.69;102003.69;4920275;28;45347;-72
2021/09/23 08:46:33;;;;;;;;;32.50;29.25;;;;;17.59;60.30;102002.41;4923796;28;45419;-67
2021/09/23 08:49:00;;;;;;;;;28.75;27.00;;;;;17.68;59.90;102005.38;4921107;28;45294;-74
2021/09/23 08:51:27;;;;;;;;;27.50;22.25;;;;;17.70;60.04;102007.03;4924013;28;45309;-69
2021/09/23 08:53:52;;;;;;;;;26.50;23.75;;;;;17.82;59.68;102008.00;4918846;28;45467;-70
2021/09/23 08:56:19;;;;;;;;;25.75;22.75;;;;;17.90;59.41;102010.13;4922999;28;45287;-70
2021/09/23 08:58:45;;;;;;;;;30.00;26.00;;;;;17.97;59.05;102011.41;4921248;28;45447;-72
2021/09/23 09:01:23;;;;;;;;;30.75;25.00;;;;;18.04;58.87;102010.88;4922130;28;45321;-71
2021/09/23 09:04:07;;;;;;;;;24.75;22.25;;;;;18.09;58.86;102013.22;4923197;28;45416;-69
2021/09/23 09:06:33;;;;;;;;;25.00;21.00;;;;;18.10;59.10;102018.44;4919875;28;45455;-70
2021/09/23 09:09:01;;;;;;;;;21.00;19.00;;;;;18.16;58.31;102013.59;4925930;28;45344;-75
2021/09/23 09:11:27;;;;;;;;;27.75;20.00;;;;;18.22;58.70;102006.03;4920936;28;45547;-71
2021/09/23 09:13:53;;;;;;;;;31.75;25.00;;;;;18.30;58.44;102013.50;4925203;28;45473;-72
2021/09/23 09:16:25;;;;;;;;;20.25;18.50;;;;;18.37;57.78;102001.41;4920650;28;45940;-72
2021/09/23 09:18:56;;;;;;;;;24.25;18.50;;;;;18.43;57.61;102000.97;4922021;28;45399;-71
2021/09/23 09:21:24;;;;;;;;;28.50;23.25;;;;;18.46;57.27;102003.41;4922953;28;45508;-71
2021/09/23 09:24:02;;;;;;;;;23.50;18.75;;;;;18.51;57.35;102000.44;4922381;28;45279;-71
2021/09/23 09:26:36;;;;;;;;;26.25;22.00;;;;;18.58;57.95;101994.53;4921932;28;46349;-75
2021/09/23 09:29:04;;;;;;;;;23.50;17.75;;;;;18.65;57.09;101998.50;4920754;28;45305;-71
2021/09/23 09:31:30;;;;;;;;;27.75;22.00;;;;;18.74;57.20;102006.78;4919271;28;45471;-76
2021/09/23 09:33:59;;;;;;;;;19.50;18.00;;;;;18.82;56.99;102009.75;4922224;28;45733;-75
2021/09/23 09:36:36;;;;;;;;;24.25;18.00;;;;;18.89;56.79;102006.50;4926811;28;46376;-73
2021/09/23 09:39:06;;;;;;;;;24.00;19.25;;;;;18.96;56.70;101994.41;4917872;28;45263;-69
2021/09/23 09:41:38;;;;;;;;;25.75;19.50;;;;;19.05;56.99;101995.53;4920966;28;45302;-70
2021/09/23 09:44:08;;;;;;;;;19.50;16.00;;;;;19.14;56.65;101984.16;4921246;28;45464;-69
2021/09/23 09:46:38;;;;;;;;;12.75;12.00;;;;;19.22;56.49;101984.44;4917578;28;45528;-73
2021/09/23 09:49:04;;;;;;;;;18.25;13.75;;;;;19.30;56.21;101978.50;4917388;28;45382;-73
2021/09/23 09:51:48;;;;;;;;;12.00;11.50;;;;;19.39;54.68;101976.94;4919228;28;45490;-71
2021/09/23 09:54:18;;;;;;;;;20.00;13.50;;;;;19.38;54.72;101978.75;4917360;28;45679;-72
2021/09/23 09:56:54;;;;;;;;;14.75;13.75;;;;;19.40;55.04;101975.97;4917969;28;45644;-73
2021/09/23 09:59:20;;;;;;;;;11.75;10.75;;;;;19.41;54.59;101965.16;4919133;28;45569;-71
2021/09/23 10:01:48;;;;;;;;;13.50;8.75;;;;;19.48;54.38;101970.88;4916625;28;45523;-72
2021/09/23 10:04:16;;;;;;;;;11.75;10.00;;;;;19.54;53.51;101962.41;4914254;28;45739;-71
2021/09/23 10:06:43;;;;;;;;;11.00;9.50;;;;;19.61;53.25;101977.03;4916764;28;45493;-73
2021/09/23 10:09:11;;;;;;;;;11.00;10.25;;;;;19.70;53.99;101972.78;4919719;28;45440;-73
2021/09/23 10:11:46;;;;;;;;;10.00;10.00;;;;;19.76;53.51;101970.47;4915542;28;45360;-72
2021/09/23 10:14:14;;;;;;;;;12.00;10.00;;;;;19.84;53.81;101967.22;4914637;28;45503;-71
2021/09/23 10:16:40;;;;;;;;;11.75;10.00;;;;;19.92;53.56;101970.13;4915483;28;45402;-71
2021/09/23 10:19:07;;;;;;;;;11.75;10.00;;;;;20.01;53.46;101964.03;4918680;28;45434;-74
2021/09/23 10:21:34;;;;;;;;;11.00;9.75;;;;;20.10;52.84;101964.28;4917820;28;45373;-71
2021/09/23 10:24:02;;;;;;;;;11.25;10.00;;;;;20.16;51.90;101961.13;4918773;28;45242;-72
2021/09/23 10:26:31;;;;;;;;;11.50;11.50;;;;;20.21;52.03;101954.41;4920015;28;46321;-73
2021/09/23 10:28:59;;;;;;;;;12.75;10.25;;;;;20.27;52.09;101959.25;4916854;28;45486;-75
2021/09/23 10:31:34;;;;;;;;;13.75;12.00;;;;;20.35;52.07;101953.28;4900167;28;45262;-75
2021/09/23 10:34:02;;;;;;;;;14.75;11.50;;;;;20.39;51.86;101952.09;4914040;28;45585;-75
2021/09/23 10:36:29;;;;;;;;;12.50;11.00;;;;;20.43;51.81;101947.31;4919488;28;46014;-72
2021/09/23 10:38:55;;;;;;;;;16.50;12.25;;;;;20.46;51.19;101944.41;4916108;28;45237;-70
2021/09/23 10:41:22;;;;;;;;;14.25;10.75;;;;;20.50;50.94;101935.16;4914511;28;45428;-74
2021/09/23 10:43:49;;;;;;;;;12.75;11.25;;;;;20.56;50.73;101937.34;4916081;28;45598;-70
2021/09/23 10:46:16;;;;;;;;;10.25;10.00;;;;;20.60;50.74;101936.94;4914785;28;46225;-71
2021/09/23 10:48:41;;;;;;;;;16.00;15.00;;;;;20.66;50.66;101930.25;4914692;28;45205;-73
2021/09/23 10:51:09;;;;;;;;;13.75;11.75;;;;;20.72;50.04;101931.56;4916513;28;45465;-69
2021/09/23 10:53:36;;;;;;;;;15.50;15.00;;;;;20.76;50.08;101930.31;4917592;28;45514;-75
2021/09/23 10:56:07;;;;;;;;;12.50;10.00;;;;;20.81;50.24;101914.72;4914838;28;45402;-71
2021/09/23 10:58:33;;;;;;;;;19.25;13.75;;;;;20.87;50.50;101909.72;4913876;28;45403;-75
2021/09/23 11:01:00;;;;;;;;;17.00;15.50;;;;;20.90;50.38;101906.75;4916798;28;45486;-72
2021/09/23 11:03:35;;;;;;;;;14.25;13.50;;;;;20.91;50.37;101904.94;4914635;28;45457;-74
2021/09/23 11:06:11;;;;;;;;;24.75;18.00;;;;;20.96;50.18;101901.88;4914374;28;46689;-71
2021/09/23 11:08:42;;;;;;;;;20.00;15.25;;;;;21.03;50.07;101897.69;4916950;28;45479;-75